Time;durP1;ratioP1;P1;durP2;ratioP2;P2;SDS_P1;SDS_P2;PMS_P1;PMS_P2;Temp;Humidity;BMP_temperature;BMP_pressure;BME280_temperature;BME280_humidity;BME280_pressure;Samples;Min_cycle;Max_cycle;Signal;HPM_P1;HPM_P2
2023/10/10 00:00:49;;;;;;;13.45;6.65;;;;;;;;;;5059253;28;20159;-88
2023/10/10 00:03:21;;;;;;;13.18;6.38;;;;;;;;;;5059491;28;20027;-88
2023/10/10 00:05:47;;;;;;;17.67;7.18;;;;;;;;;;5059437;28;20012;-88
2023/10/10 00:08:14;;;;;;;12.70;6.18;;;;;;;;;;5058874;28;20019;-88
2023/10/10 00:10:49;;;;;;;12.25;6.85;;;;;;;;;;5059349;28;20046;-87
2023/10/10 00:13:16;;;;;;;17.42;6.95;;;;;;;;;;5055310;28;20036;-88
2023/10/10 00:16:04;;;;;;;15.77;7.15;;;;;;;;;;5054796;28;20056;-89
2023/10/10 00:18:30;;;;;;;15.77;7.00;;;;;;;;;;5059414;28;20020;-89
2023/10/10 00:21:08;;;;;;;13.98;6.18;;;;;;;;;;5077899;28;20088;-88
2023/10/10 00:23:39;;;;;;;13.55;6.65;;;;;;;;;;5059374;28;20367;-88
2023/10/10 00:26:05;;;;;;;13.57;6.95;;;;;;;;;;5059753;28;20021;-88
2023/10/10 00:28:33;;;;;;;13.88;6.97;;;;;;;;;;5060423;28;20047;-88
2023/10/10 00:30:59;;;;;;;11.50;6.70;;;;;;;;;;5080327;28;20021;-89
2023/10/10 00:33:25;;;;;;;17.80;7.32;;;;;;;;;;5062684;28;20028;-88
2023/10/10 00:35:50;;;;;;;23.40;7.10;;;;;;;;;;5061316;28;20031;-89
2023/10/10 00:38:24;;;;;;;13.85;6.43;;;;;;;;;;5078357;28;20028;-88
2023/10/10 00:40:50;;;;;;;13.30;6.63;;;;;;;;;;5058638;28;20430;-88
2023/10/10 00:43:22;;;;;;;15.38;6.35;;;;;;;;;;5060362;28;20017;-88
2023/10/10 00:45:57;;;;;;;;;;;;;;;;;;5059673;28;20066;-89
2023/10/10 00:48:23;;;;;;;13.35;6.60;;;;;;;;;;5078775;28;19912;-88
2023/10/10 00:50:53;;;;;;;14.15;6.53;;;;;;;;;;5060044;28;20028;-89
2023/10/10 00:53:21;;;;;;;13.00;6.20;;;;;;;;;;5059040;28;20029;-89
2023/10/10 00:55:55;;;;;;;11.73;6.90;;;;;;;;;;5058663;28;20021;-88
2023/10/10 00:58:22;;;;;;;16.60;6.30;;;;;;;;;;5058375;28;20025;-88
2023/10/10 01:00:49;;;;;;;17.08;7.05;;;;;;;;;;5054624;28;20029;-88
2023/10/10 01:03:20;;;;;;;12.02;6.60;;;;;;;;;;5048155;28;20023;-88
2023/10/10 01:05:52;;;;;;;11.02;6.13;;;;;;;;;;5058024;28;20039;-88
2023/10/10 01:08:19;;;;;;;11.93;6.68;;;;;;;;;;5057850;28;20356;-88
2023/10/10 01:10:47;;;;;;;14.90;7.18;;;;;;;;;;5057154;28;20115;-88
2023/10/10 01:13:13;;;;;;;14.40;7.32;;;;;;;;;;5057072;28;20038;-88
2023/10/10 01:15:43;;;;;;;15.23;7.32;;;;;;;;;;5075356;28;20427;-88
2023/10/10 01:18:13;;;;;;;17.55;7.03;;;;;;;;;;5044179;28;20057;-89
2023/10/10 01:20:45;;;;;;;16.50;7.28;;;;;;;;;;5075459;28;20016;-89
2023/10/10 01:23:11;;;;;;;15.18;6.25;;;;;;;;;;5057661;28;20057;-89
2023/10/10 01:28:13;;;;;;;22.08;6.70;;;;;;;;;;5078150;28;20088;-89
2023/10/10 01:33:24;;;;;;;14.48;6.38;;;;;;;;;;5074989;28;20016;-88
2023/10/10 01:35:50;;;;;;;14.32;6.95;;;;;;;;;;5059462;28;20336;-89
2023/10/10 01:38:21;;;;;;;15.80;6.88;;;;;;;;;;5060543;28;20115;-89
2023/10/10 01:40:47;;;;;;;18.88;7.65;;;;;;;;;;5060018;28;20029;-89
2023/10/10 01:43:13;;;;;;;14.43;7.40;;;;;;;;;;5059977;28;20079;-88
2023/10/10 01:45:41;;;;;;;14.30;6.68;;;;;;;;;;5078496;28;20020;-89
2023/10/10 01:48:11;;;;;;;15.15;7.32;;;;;;;;;;5058944;28;20023;-89
2023/10/10 01:50:37;;;;;;;15.80;8.00;;;;;;;;;;5061050;28;20376;-89
2023/10/10 01:53:10;;;;;;;17.33;6.60;;;;;;;;;;5056895;28;20047;-88
2023/10/10 01:55:38;;;;;;;11.43;6.22;;;;;;;;;;5060945;28;20027;-88
2023/10/10 01:58:10;;;;;;;13.63;7.18;;;;;;;;;;5057264;28;20546;-89
2023/10/10 02:00:35;;;;;;;15.55;7.93;;;;;;;;;;5075050;28;20017;-88
2023/10/10 02:03:01;;;;;;;17.52;7.53;;;;;;;;;;5075230;28;20020;-89
2023/10/10 02:05:45;;;;;;;18.48;7.70;;;;;;;;;;5074764;28;20016;-88
2023/10/10 02:08:11;;;;;;;20.50;7.95;;;;;;;;;;5056517;28;20024;-89
2023/10/10 02:10:37;;;;;;;16.73;8.27;;;;;;;;;;5056808;28;20427;-89
2023/10/10 02:13:06;;;;;;;20.00;7.90;;;;;;;;;;5074997;28;20094;-89
2023/10/10 02:15:36;;;;;;;19.27;7.68;;;;;;;;;;5056342;28;20078;-88
2023/10/10 02:18:04;;;;;;;19.05;8.07;;;;;;;;;;5056250;28;20044;-88
2023/10/10 02:20:49;;;;;;;22.88;8.25;;;;;;;;;;5056656;28;20495;-88
2023/10/10 02:23:30;;;;;;;21.95;8.23;;;;;;;;;;5056842;28;20021;-88
2023/10/10 02:26:01;;;;;;;19.47;8.40;;;;;;;;;;5052779;28;20097;-88
2023/10/10 02:28:43;;;;;;;13.90;7.85;;;;;;;;;;5056381;28;20031;-88
2023/10/10 02:31:09;;;;;;;15.23;8.30;;;;;;;;;;5056296;28;20024;-89
2023/10/10 02:33:37;;;;;;;16.13;8.10;;;;;;;;;;5074718;28;20368;-89
2023/10/10 02:36:07;;;;;;;17.85;8.48;;;;;;;;;;5057896;28;20034;-88
2023/10/10 02:38:39;;;;;;;17.35;9.30;;;;;;;;;;5056354;28;20399;-88
2023/10/10 02:44:05;;;;;;;17.15;8.55;;;;;;;;;;5077799;28;20111;-88
2023/10/10 02:49:43;;;;;;;19.77;9.47;;;;;;;;;;5077059;28;20025;-88
2023/10/10 02:52:06;;;;;;;18.40;9.70;;;;;;;;;;5071718;28;20028;-88
2023/10/10 02:54:44;;;;;;;;;;;;;;;;;;5060306;28;20034;-87
2023/10/10 02:59:58;;;;;;;19.02;10.57;;;;;;;;;;5078598;28;20377;-88
2023/10/10 03:02:40;;;;;;;24.52;10.23;;;;;;;;;;5060418;28;20027;-88
2023/10/10 03:05:06;;;;;;;18.67;9.35;;;;;;;;;;5061619;28;20313;-88
2023/10/10 03:07:35;;;;;;;16.95;8.88;;;;;;;;;;5060604;28;20020;-88
2023/10/10 03:13:04;;;;;;;17.88;8.57;;;;;;;;;;5078189;28;20023;-88
2023/10/10 03:15:32;;;;;;;21.13;8.60;;;;;;;;;;5076555;28;20025;-88
2023/10/10 03:28:20;;;;;;;13.18;7.90;;;;;;;;;;5076781;28;20486;-89
2023/10/10 03:30:51;;;;;;;17.98;7.82;;;;;;;;;;5059062;28;20020;-89
2023/10/10 03:33:35;;;;;;;16.23;8.15;;;;;;;;;;5059405;28;20464;-88
2023/10/10 03:36:44;;;;;;;15.13;7.90;;;;;;;;;;5059311;28;20100;-88
2023/10/10 05:25:23;;;;;;;16.40;7.50;;;;;;;;;;5075258;28;20102;-88
2023/10/10 05:27:58;;;;;;;17.02;8.05;;;;;;;;;;5057206;28;20025;-88
2023/10/10 05:30:27;;;;;;;19.55;7.72;;;;;;;;;;5090302;28;20111;-88
2023/10/10 05:33:02;;;;;;;18.73;8.18;;;;;;;;;;5057516;28;20036;-88
2023/10/10 05:35:32;;;;;;;16.02;6.97;;;;;;;;;;5056220;28;20421;-87
2023/10/10 05:38:00;;;;;;;19.10;8.15;;;;;;;;;;5086541;28;20024;-87
2023/10/10 05:40:25;;;;;;;17.60;8.30;;;;;;;;;;5047510;28;20025;-88
2023/10/10 05:42:57;;;;;;;19.45;8.15;;;;;;;;;;5056553;28;20032;-87
2023/10/10 05:45:22;;;;;;;20.48;7.75;;;;;;;;;;5056353;28;20414;-87
2023/10/10 05:47:50;;;;;;;13.43;7.35;;;;;;;;;;5056622;28;20126;-88
2023/10/10 05:50:18;;;;;;;20.38;7.85;;;;;;;;;;5057008;28;20328;-87
2023/10/10 05:52:44;;;;;;;14.38;6.65;;;;;;;;;;5056428;28;20380;-87
2023/10/10 05:55:12;;;;;;;17.33;8.20;;;;;;;;;;5055345;28;20013;-88
2023/10/10 05:57:38;;;;;;;14.15;6.72;;;;;;;;;;5057744;28;20110;-87
2023/10/10 06:00:10;;;;;;;21.65;7.10;;;;;;;;;;5059385;28;20028;-89
2023/10/10 06:02:41;;;;;;;18.75;7.57;;;;;;;;;;5075309;28;20380;-88
2023/10/10 06:05:08;;;;;;;13.30;7.13;;;;;;;;;;5057613;28;20016;-88
2023/10/10 06:07:42;;;;;;;16.17;7.53;;;;;;;;;;5082556;28;20024;-87
2023/10/10 06:10:16;;;;;;;14.55;6.85;;;;;;;;;;5064960;28;20021;-85
2023/10/10 06:12:48;;;;;;;17.55;6.65;;;;;;;;;;5059755;28;20028;-88
2023/10/10 06:15:17;;;;;;;14.40;7.15;;;;;;;;;;5061288;28;20021;-88
2023/10/10 06:17:44;;;;;;;13.10;6.75;;;;;;;;;;5082690;28;20088;-88
2023/10/10 06:20:10;;;;;;;17.90;7.05;;;;;;;;;;5062983;28;20094;-88
2023/10/10 06:22:39;;;;;;;14.60;6.72;;;;;;;;;;5063763;28;20427;-88
2023/10/10 06:25:05;;;;;;;14.95;6.75;;;;;;;;;;5055180;28;20468;-88
2023/10/10 06:27:33;;;;;;;15.90;6.22;;;;;;;;;;5056555;28;20028;-88
2023/10/10 06:30:00;;;;;;;15.77;7.35;;;;;;;;;;5071970;28;20070;-89
2023/10/10 06:32:26;;;;;;;21.17;7.70;;;;;;;;;;5056308;28;20115;-88
2023/10/10 06:35:10;;;;;;;16.52;7.35;;;;;;;;;;5059866;28;20024;-86
2023/10/10 06:37:37;;;;;;;14.02;7.47;;;;;;;;;;5073061;28;20384;-89
2023/10/10 06:40:08;;;;;;;19.00;7.47;;;;;;;;;;5059332;28;20034;-88
2023/10/10 06:42:34;;;;;;;18.98;6.95;;;;;;;;;;5059789;28;20021;-88
2023/10/10 06:45:07;;;;;;;23.35;7.20;;;;;;;;;;5078158;28;20435;-88
2023/10/10 06:47:39;;;;;;;14.90;6.85;;;;;;;;;;5059378;28;20060;-88
2023/10/10 06:50:10;;;;;;;14.05;7.00;;;;;;;;;;5059036;28;20024;-88
2023/10/10 06:52:36;;;;;;;17.57;7.40;;;;;;;;;;5093242;28;20364;-88
2023/10/10 06:55:10;;;;;;;20.52;8.63;;;;;;;;;;5059150;28;20017;-88
2023/10/10 06:57:36;;;;;;;18.33;7.50;;;;;;;;;;5059469;28;20089;-88
2023/10/10 07:00:28;;;;;;;14.73;7.38;;;;;;;;;;5058766;28;20027;-88
2023/10/10 07:02:53;;;;;;;16.40;7.50;;;;;;;;;;5076593;28;20032;-88
2023/10/10 07:05:19;;;;;;;16.23;6.75;;;;;;;;;;5059135;28;20017;-88
2023/10/10 07:07:52;;;;;;;16.95;7.80;;;;;;;;;;5059255;28;20375;-88
2023/10/10 07:10:25;;;;;;;17.60;7.38;;;;;;;;;;5076272;28;20025;-88
2023/10/10 07:12:53;;;;;;;17.05;7.50;;;;;;;;;;5068203;28;20024;-88
2023/10/10 07:15:21;;;;;;;14.85;7.43;;;;;;;;;;5059539;28;20016;-88
2023/10/10 07:18:00;;;;;;;19.55;7.32;;;;;;;;;;5060714;28;20012;-88
2023/10/10 07:23:09;;;;;;;14.43;6.75;;;;;;;;;;5079627;28;20379;-88
2023/10/10 07:25:43;;;;;;;15.82;7.03;;;;;;;;;;5078103;28;20017;-88
2023/10/10 07:28:13;;;;;;;15.52;7.20;;;;;;;;;;5059931;28;20399;-88
2023/10/10 07:30:43;;;;;;;18.85;7.75;;;;;;;;;;5059847;28;20429;-88
2023/10/10 07:33:12;;;;;;;15.10;6.95;;;;;;;;;;5053276;28;20013;-88
2023/10/10 07:35:43;;;;;;;16.95;6.93;;;;;;;;;;5056305;28;20025;-88
2023/10/10 07:38:08;;;;;;;15.52;7.32;;;;;;;;;;5058901;28;20123;-88
2023/10/10 07:40:37;;;;;;;25.13;7.22;;;;;;;;;;5059235;28;20069;-88
2023/10/10 07:43:03;;;;;;;14.10;6.45;;;;;;;;;;5057881;28;20131;-88
2023/10/10 07:45:43;;;;;;;15.38;7.40;;;;;;;;;;5059259;28;20012;-88
2023/10/10 07:50:35;;;;;;;19.20;7.38;;;;;;;;;;5077511;28;20056;-89
2023/10/10 07:53:05;;;;;;;23.42;7.88;;;;;;;;;;5058751;28;20031;-88
2023/10/10 07:55:34;;;;;;;14.48;6.80;;;;;;;;;;5059191;28;20038;-89
2023/10/10 07:58:00;;;;;;;14.25;6.57;;;;;;;;;;5059226;28;20020;-88
2023/10/10 08:00:39;;;;;;;21.42;6.13;;;;;;;;;;5058282;28;20050;-88
2023/10/10 08:03:07;;;;;;;24.17;6.80;;;;;;;;;;5059365;28;20379;-88
2023/10/10 08:05:33;;;;;;;19.80;7.43;;;;;;;;;;5060205;28;20021;-89
2023/10/10 08:08:04;;;;;;;14.80;6.80;;;;;;;;;;5060718;28;20024;-88
2023/10/10 08:10:30;;;;;;;22.83;7.10;;;;;;;;;;5058105;28;20131;-89
2023/10/10 08:13:09;;;;;;;16.98;6.50;;;;;;;;;;5060266;28;20031;-88
2023/10/10 08:15:42;;;;;;;15.50;6.18;;;;;;;;;;5061209;28;20021;-88
2023/10/10 08:18:07;;;;;;;19.73;6.47;;;;;;;;;;5061238;28;20146;-88
2023/10/10 08:23:04;;;;;;;14.00;6.10;;;;;;;;;;5078255;28;20027;-88
2023/10/10 08:25:29;;;;;;;18.30;6.95;;;;;;;;;;5078938;28;20062;-90
2023/10/10 08:27:55;;;;;;;15.13;6.43;;;;;;;;;;5061309;28;20024;-89
2023/10/10 08:30:25;;;;;;;18.05;7.18;;;;;;;;;;5060581;28;20111;-89
2023/10/10 08:32:53;;;;;;;15.27;6.03;;;;;;;;;;5059096;28;20046;-89
2023/10/10 08:35:23;;;;;;;18.13;6.30;;;;;;;;;;5057550;28;20013;-89
2023/10/10 08:37:50;;;;;;;13.70;6.43;;;;;;;;;;5058589;28;20115;-89
2023/10/10 08:40:19;;;;;;;17.80;6.28;;;;;;;;;;5060288;28;20040;-89
2023/10/10 08:42:53;;;;;;;20.05;7.32;;;;;;;;;;5061038;28;20024;-89
2023/10/10 08:45:22;;;;;;;17.65;6.82;;;;;;;;;;5060838;28;20467;-89
2023/10/10 08:47:56;;;;;;;18.88;6.47;;;;;;;;;;5060030;28;20013;-89
2023/10/10 08:50:24;;;;;;;17.10;7.63;;;;;;;;;;5088276;28;20024;-90
2023/10/10 08:52:49;;;;;;;18.55;7.30;;;;;;;;;;5077563;28;20035;-89
2023/10/10 08:55:17;;;;;;;16.00;6.55;;;;;;;;;;5077424;28;20020;-89
2023/10/10 08:57:46;;;;;;;18.42;6.15;;;;;;;;;;5078634;28;20475;-89
2023/10/10 09:00:17;;;;;;;15.65;6.53;;;;;;;;;;5056643;28;20021;-89
2023/10/10 09:02:43;;;;;;;17.10;6.80;;;;;;;;;;5093844;28;20083;-88
2023/10/10 09:05:12;;;;;;;15.20;6.03;;;;;;;;;;5059881;28;20288;-89
2023/10/10 09:07:42;;;;;;;13.52;6.47;;;;;;;;;;5060271;28;20052;-89
2023/10/10 09:10:13;;;;;;;17.02;6.80;;;;;;;;;;5061428;28;20029;-89
2023/10/10 09:12:52;;;;;;;11.60;5.80;;;;;;;;;;5060292;28;20051;-89
2023/10/10 09:15:18;;;;;;;14.55;6.20;;;;;;;;;;5060405;28;20105;-89
2023/10/10 09:17:45;;;;;;;16.63;5.95;;;;;;;;;;5060055;28;20020;-90
2023/10/10 09:23:21;;;;;;;14.40;5.85;;;;;;;;;;5056089;28;20056;-89
2023/10/10 09:25:57;;;;;;;11.67;5.67;;;;;;;;;;5070817;28;20019;-89
2023/10/10 09:28:24;;;;;;;17.38;5.78;;;;;;;;;;5059979;28;20412;-89
2023/10/10 09:30:50;;;;;;;15.15;6.65;;;;;;;;;;5059533;28;20047;-90
2023/10/10 09:33:33;;;;;;;17.20;5.93;;;;;;;;;;5060081;28;20024;-89
2023/10/10 09:36:08;;;;;;;15.77;5.57;;;;;;;;;;5059679;28;20059;-88
2023/10/10 09:38:36;;;;;;;13.05;5.85;;;;;;;;;;5060970;28;20031;-88
2023/10/10 09:41:14;;;;;;;18.67;5.40;;;;;;;;;;5064517;28;20028;-89
2023/10/10 09:44:30;;;;;;;13.05;5.75;;;;;;;;;;5058458;28;20028;-90
2023/10/10 09:52:54;;;;;;;15.50;5.20;;;;;;;;;;5077819;28;20016;-89
2023/10/10 10:06:34;;;;;;;13.48;5.15;;;;;;;;;;5040694;28;20024;-89
2023/10/10 10:09:09;;;;;;;13.57;5.20;;;;;;;;;;5073661;28;20025;-90
2023/10/10 10:11:43;;;;;;;13.23;5.63;;;;;;;;;;5084745;28;20036;-89
2023/10/10 10:14:17;;;;;;;11.80;5.25;;;;;;;;;;5059743;28;20491;-89
2023/10/10 10:16:58;;;;;;;11.93;4.80;;;;;;;;;;5059722;28;20121;-89
2023/10/10 10:19:28;;;;;;;20.27;5.22;;;;;;;;;;5058983;28;20032;-90
2023/10/10 10:22:08;;;;;;;17.83;5.38;;;;;;;;;;5059815;28;20025;-90
2023/10/10 10:24:52;;;;;;;14.38;5.55;;;;;;;;;;5059332;28;20342;-90
2023/10/10 10:27:39;;;;;;;14.95;4.68;;;;;;;;;;5059517;28;20484;-90
2023/10/10 10:30:30;;;;;;;11.35;4.38;;;;;;;;;;5083435;28;20113;-90
2023/10/10 10:32:58;;;;;;;13.32;4.90;;;;;;;;;;5074067;28;20012;-90
2023/10/10 10:35:47;;;;;;;15.45;4.90;;;;;;;;;;5059631;28;20422;-89
2023/10/10 10:38:12;;;;;;;16.60;5.57;;;;;;;;;;5049124;28;20111;-90
2023/10/10 10:43:20;;;;;;;13.18;5.05;;;;;;;;;;5078975;28;20020;-90
2023/10/10 10:45:51;;;;;;;11.50;4.70;;;;;;;;;;5060214;28;20477;-89
2023/10/10 10:48:29;;;;;;;14.30;5.30;;;;;;;;;;5061401;28;20138;-90
2023/10/10 10:51:22;;;;;;;15.88;5.40;;;;;;;;;;5093786;28;20040;-90
2023/10/10 10:53:50;;;;;;;14.43;5.30;;;;;;;;;;5050854;28;20035;-90
2023/10/10 11:01:28;;;;;;;16.27;4.38;;;;;;;;;;5076737;28;20031;-90
2023/10/10 11:03:54;;;;;;;12.32;4.45;;;;;;;;;;5059244;28;20027;-90
2023/10/10 11:06:20;;;;;;;12.10;5.22;;;;;;;;;;5058471;28;20512;-90
2023/10/10 11:11:23;;;;;;;9.98;4.35;;;;;;;;;;5075386;28;20024;-89
2023/10/10 11:14:00;;;;;;;11.07;4.03;;;;;;;;;;5056277;28;20356;-90
2023/10/10 11:16:36;;;;;;;13.15;4.25;;;;;;;;;;5058241;28;20380;-90
2023/10/10 11:19:12;;;;;;;21.10;4.93;;;;;;;;;;5062573;28;20024;-90
2023/10/10 11:21:48;;;;;;;7.28;3.95;;;;;;;;;;5062287;28;20020;-89
2023/10/10 11:24:15;;;;;;;11.45;3.70;;;;;;;;;;5061785;28;20086;-89
2023/10/10 11:26:42;;;;;;;8.77;3.97;;;;;;;;;;5061691;28;20139;-90
2023/10/10 11:29:29;;;;;;;14.63;3.60;;;;;;;;;;5079593;28;20044;-90
2023/10/10 11:32:08;;;;;;;16.38;4.07;;;;;;;;;;5080091;28;20044;-90
2023/10/10 11:34:42;;;;;;;10.68;3.88;;;;;;;;;;5061376;28;20024;-90
2023/10/10 11:37:17;;;;;;;17.75;4.60;;;;;;;;;;5062871;28;20052;-90
2023/10/10 11:39:55;;;;;;;11.75;3.63;;;;;;;;;;5061701;28;20032;-90
2023/10/10 11:42:26;;;;;;;8.30;3.00;;;;;;;;;;5054097;28;20087;-90
2023/10/10 11:45:01;;;;;;;10.50;3.33;;;;;;;;;;5094722;28;20103;-91
2023/10/10 11:47:27;;;;;;;8.13;3.30;;;;;;;;;;5062353;28;20025;-91
2023/10/10 11:50:00;;;;;;;8.88;3.80;;;;;;;;;;5062117;28;20423;-90
2023/10/10 11:52:27;;;;;;;10.48;3.80;;;;;;;;;;5062688;28;20017;-89
2023/10/10 11:54:54;;;;;;;5.78;2.92;;;;;;;;;;5062144;28;20036;-90
2023/10/10 11:57:20;;;;;;;11.63;3.42;;;;;;;;;;5063147;28;20024;-90
2023/10/10 11:59:46;;;;;;;8.60;2.78;;;;;;;;;;5070994;28;20024;-89
2023/10/10 12:02:29;;;;;;;13.50;3.10;;;;;;;;;;5064329;28;20099;-89
2023/10/10 12:04:55;;;;;;;33.88;3.60;;;;;;;;;;5079002;28;20040;-90
2023/10/10 12:07:24;;;;;;;8.40;2.70;;;;;;;;;;5078143;28;20118;-89
2023/10/10 12:09:51;;;;;;;26.45;3.25;;;;;;;;;;5061674;28;20021;-90
2023/10/10 12:12:19;;;;;;;10.75;3.00;;;;;;;;;;5060952;28;20423;-89
2023/10/10 12:14:45;;;;;;;12.35;2.38;;;;;;;;;;5061150;28;20052;-89
2023/10/10 12:17:10;;;;;;;14.15;2.78;;;;;;;;;;5059416;28;20031;-89
2023/10/10 12:19:43;;;;;;;9.60;2.80;;;;;;;;;;5079404;28;20024;-89
2023/10/10 12:22:10;;;;;;;7.38;2.83;;;;;;;;;;5060598;28;20025;-89
2023/10/10 12:24:36;;;;;;;9.20;2.72;;;;;;;;;;5047312;28;20474;-90
2023/10/10 12:27:06;;;;;;;7.78;3.10;;;;;;;;;;5060470;28;20021;-90
2023/10/10 12:29:32;;;;;;;11.20;2.58;;;;;;;;;;5059334;28;20036;-90
2023/10/10 12:31:57;;;;;;;10.32;2.97;;;;;;;;;;5077909;28;20096;-90
2023/10/10 12:34:23;;;;;;;11.57;3.00;;;;;;;;;;5059782;28;20051;-90
2023/10/10 12:36:49;;;;;;;49.38;4.03;;;;;;;;;;5059405;28;20387;-89
2023/10/10 12:39:15;;;;;;;6.53;2.47;;;;;;;;;;5071836;28;20021;-89
2023/10/10 12:41:45;;;;;;;7.30;2.67;;;;;;;;;;5040041;28;20112;-90
2023/10/10 12:44:11;;;;;;;21.27;2.97;;;;;;;;;;5087020;28;20360;-90
2023/10/10 12:46:37;;;;;;;8.52;2.67;;;;;;;;;;5060411;28;20016;-89
2023/10/10 12:49:02;;;;;;;37.35;3.90;;;;;;;;;;5060982;28;20050;-90
2023/10/10 12:51:28;;;;;;;19.45;4.35;;;;;;;;;;5059990;28;20044;-89
2023/10/10 12:54:00;;;;;;;42.10;4.07;;;;;;;;;;5060115;28;20046;-90
2023/10/10 12:56:26;;;;;;;43.08;3.75;;;;;;;;;;5060186;28;20027;-89
2023/10/10 12:58:51;;;;;;;7.82;3.20;;;;;;;;;;5061057;28;20016;-90
2023/10/10 13:01:23;;;;;;;13.48;2.78;;;;;;;;;;5060098;28;20471;-89
2023/10/10 13:03:49;;;;;;;;;;;;;;;;;;5060882;28;20017;-89
2023/10/10 13:06:15;;;;;;;10.82;2.17;;;;;;;;;;5062052;28;19927;-90
2023/10/10 13:11:20;;;;;;;11.38;2.45;;;;;;;;;;5067123;28;20028;-90
2023/10/10 13:13:48;;;;;;;13.02;2.47;;;;;;;;;;5059468;28;20036;-90
2023/10/10 13:16:37;;;;;;;5.97;2.65;;;;;;;;;;5060528;28;20012;-90
2023/10/10 13:19:06;;;;;;;7.88;2.70;;;;;;;;;;5058041;28;20032;-90
2023/10/10 13:21:35;;;;;;;10.80;3.30;;;;;;;;;;5061114;28;20024;-89
2023/10/10 13:24:00;;;;;;;12.32;3.25;;;;;;;;;;5060704;28;20017;-89
2023/10/10 13:26:27;;;;;;;12.07;2.55;;;;;;;;;;5059542;28;20066;-89
2023/10/10 13:28:53;;;;;;;6.00;2.85;;;;;;;;;;5059115;28;20047;-89
2023/10/10 13:31:19;;;;;;;7.78;2.47;;;;;;;;;;5060225;28;20024;-89
2023/10/10 13:33:44;;;;;;;9.73;3.10;;;;;;;;;;5060535;28;20112;-90
2023/10/10 13:36:15;;;;;;;7.22;2.42;;;;;;;;;;5048616;28;20024;-89
2023/10/10 13:38:50;;;;;;;7.95;3.35;;;;;;;;;;5060970;28;20043;-91
2023/10/10 13:41:18;;;;;;;5.45;2.42;;;;;;;;;;5062277;28;20090;-89
2023/10/10 13:43:47;;;;;;;7.78;2.42;;;;;;;;;;5059424;28;20012;-89
2023/10/10 13:46:14;;;;;;;10.18;3.00;;;;;;;;;;5092110;28;20070;-89
2023/10/10 13:48:40;;;;;;;10.30;2.72;;;;;;;;;;5058688;28;20020;-90
2023/10/10 13:51:07;;;;;;;7.03;2.67;;;;;;;;;;5058758;28;20298;-89
2023/10/10 13:53:33;;;;;;;6.55;2.63;;;;;;;;;;5057589;28;20020;-90
2023/10/10 13:56:00;;;;;;;5.80;2.47;;;;;;;;;;5058725;28;20024;-91
2023/10/10 13:58:25;;;;;;;8.52;2.63;;;;;;;;;;5058338;28;20491;-90
2023/10/10 14:01:13;;;;;;;6.88;2.53;;;;;;;;;;5058441;28;20016;-90
2023/10/10 14:03:48;;;;;;;6.15;2.40;;;;;;;;;;5076309;28;20021;-90
2023/10/10 14:06:19;;;;;;;13.95;2.78;;;;;;;;;;5061035;28;20016;-90
2023/10/10 14:08:48;;;;;;;7.53;2.75;;;;;;;;;;5062006;28;20079;-90
2023/10/10 14:11:23;;;;;;;7.55;2.70;;;;;;;;;;5061600;28;20499;-89
2023/10/10 14:13:49;;;;;;;6.88;2.15;;;;;;;;;;5061196;28;20085;-89
2023/10/10 14:16:15;;;;;;;5.53;2.30;;;;;;;;;;5078546;28;20016;-90
2023/10/10 14:18:47;;;;;;;12.57;2.47;;;;;;;;;;5060242;28;20028;-90
2023/10/10 14:21:12;;;;;;;13.15;2.47;;;;;;;;;;5043819;28;20024;-90
2023/10/10 14:23:41;;;;;;;10.20;2.42;;;;;;;;;;5048267;28;20029;-90
2023/10/10 14:26:13;;;;;;;9.05;2.40;;;;;;;;;;5059969;28;20356;-90
2023/10/10 14:28:38;;;;;;;;;;;;;;;;;;5056922;28;20027;-90
2023/10/10 14:31:03;;;;;;;5.00;2.20;;;;;;;;;;5070418;28;19932;-90
2023/10/10 14:33:29;;;;;;;7.43;2.42;;;;;;;;;;5049887;28;20029;-90
2023/10/10 14:35:54;;;;;;;9.48;2.28;;;;;;;;;;5066432;28;20067;-90
2023/10/10 14:38:22;;;;;;;12.18;2.70;;;;;;;;;;5076437;28;20016;-90
2023/10/10 14:40:47;;;;;;;5.40;2.20;;;;;;;;;;5059378;28;20032;-90
2023/10/10 14:43:13;;;;;;;14.75;2.75;;;;;;;;;;5092641;28;20024;-90
2023/10/10 14:45:42;;;;;;;8.45;2.35;;;;;;;;;;5060755;28;20353;-91
2023/10/10 14:48:09;;;;;;;6.68;2.35;;;;;;;;;;5058913;28;20016;-90
2023/10/10 14:50:38;;;;;;;13.38;2.80;;;;;;;;;;5061268;28;20450;-90
2023/10/10 14:53:08;;;;;;;7.70;2.97;;;;;;;;;;5063280;28;20025;-90
2023/10/10 14:55:39;;;;;;;6.50;2.63;;;;;;;;;;5071051;28;20057;-90
2023/10/10 14:58:08;;;;;;;6.00;2.17;;;;;;;;;;5061819;28;20078;-90
2023/10/10 15:00:39;;;;;;;10.07;2.63;;;;;;;;;;5061505;28;20074;-90
2023/10/10 15:03:12;;;;;;;10.02;2.45;;;;;;;;;;5061246;28;20012;-90
2023/10/10 15:05:46;;;;;;;6.40;2.60;;;;;;;;;;5061029;28;20029;-89
2023/10/10 15:08:13;;;;;;;7.93;2.78;;;;;;;;;;5060286;28;20016;-90
2023/10/10 15:10:40;;;;;;;7.95;2.40;;;;;;;;;;5060505;28;20073;-90
2023/10/10 15:13:08;;;;;;;8.23;2.33;;;;;;;;;;5075421;28;20024;-89
2023/10/10 15:15:34;;;;;;;10.95;2.70;;;;;;;;;;5056236;28;20017;-90
2023/10/10 15:17:59;;;;;;;7.10;2.25;;;;;;;;;;5059822;28;20019;-90
2023/10/10 15:20:26;;;;;;;10.40;2.28;;;;;;;;;;5061217;28;20533;-90
2023/10/10 15:22:52;;;;;;;6.40;2.40;;;;;;;;;;5095034;28;20051;-90
2023/10/10 15:25:21;;;;;;;7.60;2.55;;;;;;;;;;5062971;28;20012;-90
2023/10/10 15:27:47;;;;;;;8.02;2.90;;;;;;;;;;5059483;28;20019;-88
2023/10/10 15:30:15;;;;;;;7.03;1.95;;;;;;;;;;5075972;28;20028;-89
2023/10/10 15:32:46;;;;;;;9.00;2.70;;;;;;;;;;5058063;28;20024;-88
2023/10/10 15:35:12;;;;;;;9.73;2.10;;;;;;;;;;5054574;28;20033;-88
2023/10/10 15:37:43;;;;;;;6.60;2.42;;;;;;;;;;5069849;28;20073;-88
2023/10/10 15:40:21;;;;;;;7.43;2.70;;;;;;;;;;5057387;28;20025;-88
2023/10/10 15:42:58;;;;;;;7.28;2.20;;;;;;;;;;5062342;28;20031;-88
2023/10/10 15:45:23;;;;;;;8.60;2.63;;;;;;;;;;5057754;28;20012;-88
2023/10/10 15:47:49;;;;;;;7.43;2.15;;;;;;;;;;5055660;28;20028;-88
2023/10/10 15:50:16;;;;;;;6.45;1.88;;;;;;;;;;5056089;28;20582;-88
2023/10/10 15:52:42;;;;;;;6.00;2.47;;;;;;;;;;5056812;28;20141;-88
2023/10/10 15:55:11;;;;;;;7.82;2.30;;;;;;;;;;5061222;28;20044;-88
2023/10/10 15:57:36;;;;;;;7.00;2.38;;;;;;;;;;5056867;28;20029;-88
2023/10/10 16:00:09;;;;;;;8.63;2.28;;;;;;;;;;5056808;28;20069;-88
2023/10/10 16:02:35;;;;;;;7.22;2.47;;;;;;;;;;5056322;28;20042;-88
2023/10/10 16:05:00;;;;;;;7.43;2.25;;;;;;;;;;5055795;28;20119;-87
2023/10/10 16:07:29;;;;;;;10.93;2.70;;;;;;;;;;5058283;28;20068;-88
2023/10/10 16:09:55;;;;;;;9.48;2.38;;;;;;;;;;5057318;28;20048;-88
2023/10/10 16:12:20;;;;;;;6.80;2.10;;;;;;;;;;5055927;28;20391;-88
2023/10/10 16:14:47;;;;;;;5.65;2.22;;;;;;;;;;5056853;28;20419;-88
2023/10/10 16:17:16;;;;;;;9.07;2.75;;;;;;;;;;5056351;28;20494;-88
2023/10/10 16:19:42;;;;;;;9.10;2.70;;;;;;;;;;5057377;28;20020;-88
2023/10/10 16:22:12;;;;;;;5.55;2.10;;;;;;;;;;5056996;28;20016;-88
2023/10/10 16:24:39;;;;;;;7.90;2.20;;;;;;;;;;5043759;28;20020;-88
2023/10/10 16:27:08;;;;;;;7.03;2.67;;;;;;;;;;5060712;28;20024;-87
2023/10/10 16:29:36;;;;;;;9.15;3.25;;;;;;;;;;5055539;28;20470;-88
2023/10/10 16:32:09;;;;;;;6.38;2.40;;;;;;;;;;5074918;28;20026;-88
2023/10/10 16:34:35;;;;;;;8.80;2.33;;;;;;;;;;5057055;28;20027;-87
2023/10/10 16:37:00;;;;;;;12.57;3.63;;;;;;;;;;5075278;28;20195;-88
2023/10/10 16:39:26;;;;;;;7.80;2.38;;;;;;;;;;5062840;28;20059;-88
2023/10/10 16:41:51;;;;;;;8.77;2.65;;;;;;;;;;5058522;28;20412;-88
2023/10/10 16:44:16;;;;;;;5.65;2.33;;;;;;;;;;5074468;28;20055;-88
2023/10/10 16:46:42;;;;;;;9.93;2.45;;;;;;;;;;5056662;28;20119;-87
2023/10/10 16:49:10;;;;;;;7.38;2.45;;;;;;;;;;5072831;28;20017;-88
2023/10/10 16:51:37;;;;;;;7.50;2.35;;;;;;;;;;5074222;28;20055;-88
2023/10/10 16:54:06;;;;;;;7.65;2.25;;;;;;;;;;5055896;28;20028;-87
2023/10/10 16:56:34;;;;;;;8.55;1.90;;;;;;;;;;5056013;28;20132;-88
2023/10/10 16:58:59;;;;;;;7.43;2.15;;;;;;;;;;5055130;28;20403;-87
2023/10/10 17:01:26;;;;;;;10.32;2.10;;;;;;;;;;5055778;28;20463;-87
2023/10/10 17:03:55;;;;;;;10.27;2.55;;;;;;;;;;5055789;28;20087;-87
2023/10/10 17:06:26;;;;;;;6.65;2.17;;;;;;;;;;5056206;28;20017;-87
2023/10/10 17:08:56;;;;;;;4.95;2.45;;;;;;;;;;5054336;28;20388;-87
2023/10/10 17:11:22;;;;;;;8.63;2.40;;;;;;;;;;5053847;28;20032;-87
2023/10/10 17:13:49;;;;;;;7.35;2.33;;;;;;;;;;5054313;28;20029;-88
2023/10/10 17:16:17;;;;;;;7.68;2.30;;;;;;;;;;5054266;28;20414;-87
2023/10/10 17:18:49;;;;;;;5.65;2.20;;;;;;;;;;5052185;28;20020;-87
2023/10/10 17:21:18;;;;;;;8.13;2.55;;;;;;;;;;5054139;28;20016;-87
2023/10/10 17:23:50;;;;;;;6.78;2.30;;;;;;;;;;5053883;28;20096;-87
2023/10/10 17:26:18;;;;;;;7.30;2.65;;;;;;;;;;5054639;28;20434;-88
2023/10/10 17:28:44;;;;;;;8.95;2.80;;;;;;;;;;5054919;28;20027;-88
2023/10/10 17:31:11;;;;;;;13.40;2.80;;;;;;;;;;5055199;28;20119;-88
2023/10/10 17:33:39;;;;;;;8.73;2.90;;;;;;;;;;5056008;28;20115;-88
2023/10/10 17:36:05;;;;;;;8.73;2.80;;;;;;;;;;5055485;28;20056;-88
2023/10/10 17:38:31;;;;;;;9.57;3.20;;;;;;;;;;5056526;28;20513;-88
2023/10/10 17:41:03;;;;;;;10.02;2.70;;;;;;;;;;5056194;28;20028;-87
2023/10/10 17:43:29;;;;;;;8.23;2.63;;;;;;;;;;5068876;28;20368;-88
2023/10/10 17:45:54;;;;;;;5.00;2.05;;;;;;;;;;5056263;28;20029;-90